<?xml version="1.0" encoding="UTF-8" standalone="no" ?>
<gpx xmlns="http://www.topografix.com/GPX/1/1" xmlns:xsi="http://www.w3.org/2001/XMLSchema-instance" xsi:schemaLocation="http://www.topografix.com/GPX/1/1 http://www.topografix.com/GPX/1/1/gpx.xsd" version="1.1" creator="VisuGPX - https://www.visugpx.com">
  <metadata>
    <name>creuzier busset 46 kms</name>
    <desc><![CDATA[boucle au depart de la maison pour entretenir la forme avec quelques belles descente de la vallée du sichon]]></desc>
  </metadata>
  <trk>
    <name><![CDATA[12 10 2013]]></name>
    <trkseg>
      <trkpt lat="46.17339" lon="3.434">
        <ele>392</ele>
        <time>2013-10-12T12:09:01Z</time>
      </trkpt>
      <trkpt lat="46.17418" lon="3.43477">
        <ele>380</ele>
        <time>2013-10-12T12:09:18Z</time>
      </trkpt>
      <trkpt lat="46.17474" lon="3.436">
        <ele>384</ele>
        <time>2013-10-12T12:09:43Z</time>
      </trkpt>
      <trkpt lat="46.17489" lon="3.437">
        <ele>382</ele>
        <time>2013-10-12T12:09:52Z</time>
      </trkpt>
      <trkpt lat="46.17487" lon="3.43776">
        <ele>382</ele>
        <time>2013-10-12T12:09:59Z</time>
      </trkpt>
      <trkpt lat="46.1747" lon="3.43788">
        <ele>381</ele>
        <time>2013-10-12T12:10:02Z</time>
      </trkpt>
      <trkpt lat="46.1741" lon="3.43782">
        <ele>382</ele>
        <time>2013-10-12T12:10:09Z</time>
      </trkpt>
      <trkpt lat="46.17378" lon="3.43797">
        <ele>381</ele>
        <time>2013-10-12T12:10:14Z</time>
      </trkpt>
      <trkpt lat="46.17319" lon="3.43962">
        <ele>378</ele>
        <time>2013-10-12T12:10:49Z</time>
      </trkpt>
      <trkpt lat="46.1728" lon="3.43975">
        <ele>375</ele>
        <time>2013-10-12T12:11:02Z</time>
      </trkpt>
      <trkpt lat="46.17268" lon="3.4396">
        <ele>373</ele>
        <time>2013-10-12T12:11:10Z</time>
      </trkpt>
      <trkpt lat="46.17282" lon="3.43919">
        <ele>371</ele>
        <time>2013-10-12T12:11:31Z</time>
      </trkpt>
      <trkpt lat="46.17236" lon="3.43917">
        <ele>369</ele>
        <time>2013-10-12T12:11:53Z</time>
      </trkpt>
      <trkpt lat="46.17132" lon="3.43956">
        <ele>366</ele>
        <time>2013-10-12T12:12:47Z</time>
      </trkpt>
      <trkpt lat="46.17123" lon="3.43984">
        <ele>367</ele>
        <time>2013-10-12T12:12:52Z</time>
      </trkpt>
      <trkpt lat="46.16982" lon="3.44022">
        <ele>389</ele>
        <time>2013-10-12T12:14:01Z</time>
      </trkpt>
      <trkpt lat="46.16941" lon="3.4402">
        <ele>393</ele>
        <time>2013-10-12T12:14:19Z</time>
      </trkpt>
      <trkpt lat="46.16867" lon="3.44048">
        <ele>397</ele>
        <time>2013-10-12T12:14:50Z</time>
      </trkpt>
      <trkpt lat="46.16814" lon="3.44145">
        <ele>399</ele>
        <time>2013-10-12T12:15:19Z</time>
      </trkpt>
      <trkpt lat="46.16785" lon="3.44265">
        <ele>403</ele>
        <time>2013-10-12T12:15:46Z</time>
      </trkpt>
      <trkpt lat="46.16706" lon="3.44295">
        <ele>405</ele>
        <time>2013-10-12T12:16:21Z</time>
      </trkpt>
      <trkpt lat="46.16531" lon="3.44404">
        <ele>417</ele>
        <time>2013-10-12T12:17:41Z</time>
      </trkpt>
      <trkpt lat="46.16386" lon="3.44552">
        <ele>421</ele>
        <time>2013-10-12T12:18:35Z</time>
      </trkpt>
      <trkpt lat="46.16183" lon="3.44617">
        <ele>434</ele>
        <time>2013-10-12T12:19:35Z</time>
      </trkpt>
      <trkpt lat="46.16128" lon="3.44696">
        <ele>437</ele>
        <time>2013-10-12T12:19:54Z</time>
      </trkpt>
      <trkpt lat="46.16034" lon="3.44677">
        <ele>437</ele>
        <time>2013-10-12T12:20:18Z</time>
      </trkpt>
      <trkpt lat="46.15895" lon="3.44705">
        <ele>440</ele>
        <time>2013-10-12T12:20:50Z</time>
      </trkpt>
      <trkpt lat="46.15751" lon="3.44797">
        <ele>439</ele>
        <time>2013-10-12T12:21:18Z</time>
      </trkpt>
      <trkpt lat="46.15657" lon="3.44831">
        <ele>437</ele>
        <time>2013-10-12T12:21:31Z</time>
      </trkpt>
      <trkpt lat="46.15612" lon="3.44917">
        <ele>436</ele>
        <time>2013-10-12T12:21:40Z</time>
      </trkpt>
      <trkpt lat="46.15542" lon="3.44969">
        <ele>434</ele>
        <time>2013-10-12T12:21:49Z</time>
      </trkpt>
      <trkpt lat="46.15571" lon="3.45033">
        <ele>427</ele>
        <time>2013-10-12T12:22:00Z</time>
      </trkpt>
      <trkpt lat="46.15595" lon="3.45278">
        <ele>426</ele>
        <time>2013-10-12T12:22:59Z</time>
      </trkpt>
      <trkpt lat="46.15564" lon="3.45346">
        <ele>426</ele>
        <time>2013-10-12T12:23:09Z</time>
      </trkpt>
      <trkpt lat="46.15571" lon="3.45449">
        <ele>423</ele>
        <time>2013-10-12T12:23:19Z</time>
      </trkpt>
      <trkpt lat="46.15625" lon="3.45572">
        <ele>424</ele>
        <time>2013-10-12T12:23:30Z</time>
      </trkpt>
      <trkpt lat="46.15591" lon="3.45687">
        <ele>411</ele>
        <time>2013-10-12T12:23:43Z</time>
      </trkpt>
      <trkpt lat="46.15646" lon="3.45782">
        <ele>398</ele>
        <time>2013-10-12T12:23:55Z</time>
      </trkpt>
      <trkpt lat="46.15614" lon="3.4587">
        <ele>390</ele>
        <time>2013-10-12T12:24:08Z</time>
      </trkpt>
      <trkpt lat="46.15572" lon="3.45878">
        <ele>385</ele>
        <time>2013-10-12T12:24:16Z</time>
      </trkpt>
      <trkpt lat="46.15565" lon="3.45896">
        <ele>383</ele>
        <time>2013-10-12T12:24:19Z</time>
      </trkpt>
      <trkpt lat="46.15572" lon="3.46097">
        <ele>376</ele>
        <time>2013-10-12T12:24:39Z</time>
      </trkpt>
      <trkpt lat="46.1554" lon="3.46138">
        <ele>373</ele>
        <time>2013-10-12T12:24:49Z</time>
      </trkpt>
      <trkpt lat="46.15403" lon="3.46539">
        <ele>360</ele>
        <time>2013-10-12T12:25:34Z</time>
      </trkpt>
      <trkpt lat="46.15348" lon="3.46601">
        <ele>359</ele>
        <time>2013-10-12T12:25:45Z</time>
      </trkpt>
      <trkpt lat="46.15262" lon="3.46533">
        <ele>356</ele>
        <time>2013-10-12T12:26:03Z</time>
      </trkpt>
      <trkpt lat="46.1521" lon="3.46449">
        <ele>356</ele>
        <time>2013-10-12T12:26:19Z</time>
      </trkpt>
      <trkpt lat="46.15132" lon="3.46398">
        <ele>357</ele>
        <time>2013-10-12T12:26:36Z</time>
      </trkpt>
      <trkpt lat="46.15087" lon="3.46329">
        <ele>359</ele>
        <time>2013-10-12T12:26:51Z</time>
      </trkpt>
      <trkpt lat="46.1504" lon="3.46305">
        <ele>361</ele>
        <time>2013-10-12T12:27:06Z</time>
      </trkpt>
      <trkpt lat="46.14923" lon="3.464">
        <ele>364</ele>
        <time>2013-10-12T12:27:50Z</time>
      </trkpt>
      <trkpt lat="46.14892" lon="3.46411">
        <ele>366</ele>
        <time>2013-10-12T12:28:00Z</time>
      </trkpt>
      <trkpt lat="46.14731" lon="3.46387">
        <ele>376</ele>
        <time>2013-10-12T12:28:50Z</time>
      </trkpt>
      <trkpt lat="46.14619" lon="3.46404">
        <ele>384</ele>
        <time>2013-10-12T12:29:23Z</time>
      </trkpt>
      <trkpt lat="46.14599" lon="3.46479">
        <ele>388</ele>
        <time>2013-10-12T12:29:38Z</time>
      </trkpt>
      <trkpt lat="46.14512" lon="3.46569">
        <ele>399</ele>
        <time>2013-10-12T12:29:54Z</time>
      </trkpt>
      <trkpt lat="46.14504" lon="3.46595">
        <ele>399</ele>
        <time>2013-10-12T12:29:58Z</time>
      </trkpt>
      <trkpt lat="46.14536" lon="3.46724">
        <ele>391</ele>
        <time>2013-10-12T12:30:16Z</time>
      </trkpt>
      <trkpt lat="46.14592" lon="3.46846">
        <ele>392</ele>
        <time>2013-10-12T12:30:33Z</time>
      </trkpt>
      <trkpt lat="46.14581" lon="3.46906">
        <ele>390</ele>
        <time>2013-10-12T12:30:43Z</time>
      </trkpt>
      <trkpt lat="46.14601" lon="3.4693">
        <ele>389</ele>
        <time>2013-10-12T12:30:51Z</time>
      </trkpt>
      <trkpt lat="46.14564" lon="3.47076">
        <ele>390</ele>
        <time>2013-10-12T12:31:10Z</time>
      </trkpt>
      <trkpt lat="46.14464" lon="3.47228">
        <ele>393</ele>
        <time>2013-10-12T12:31:50Z</time>
      </trkpt>
      <trkpt lat="46.14461" lon="3.47256">
        <ele>395</ele>
        <time>2013-10-12T12:31:55Z</time>
      </trkpt>
      <trkpt lat="46.14592" lon="3.47417">
        <ele>394</ele>
        <time>2013-10-12T12:32:26Z</time>
      </trkpt>
      <trkpt lat="46.14592" lon="3.47468">
        <ele>393</ele>
        <time>2013-10-12T12:32:34Z</time>
      </trkpt>
      <trkpt lat="46.1455" lon="3.47483">
        <ele>391</ele>
        <time>2013-10-12T12:32:41Z</time>
      </trkpt>
      <trkpt lat="46.1448" lon="3.47468">
        <ele>390</ele>
        <time>2013-10-12T12:32:56Z</time>
      </trkpt>
      <trkpt lat="46.14453" lon="3.47436">
        <ele>390</ele>
        <time>2013-10-12T12:33:05Z</time>
      </trkpt>
      <trkpt lat="46.14352" lon="3.47389">
        <ele>389</ele>
        <time>2013-10-12T12:33:25Z</time>
      </trkpt>
      <trkpt lat="46.14303" lon="3.47348">
        <ele>386</ele>
        <time>2013-10-12T12:33:36Z</time>
      </trkpt>
      <trkpt lat="46.14227" lon="3.47329">
        <ele>382</ele>
        <time>2013-10-12T12:33:46Z</time>
      </trkpt>
      <trkpt lat="46.14169" lon="3.47295">
        <ele>380</ele>
        <time>2013-10-12T12:33:54Z</time>
      </trkpt>
      <trkpt lat="46.14047" lon="3.4735">
        <ele>372</ele>
        <time>2013-10-12T12:34:10Z</time>
      </trkpt>
      <trkpt lat="46.1398" lon="3.47518">
        <ele>353</ele>
        <time>2013-10-12T12:34:33Z</time>
      </trkpt>
      <trkpt lat="46.13922" lon="3.47486">
        <ele>346</ele>
        <time>2013-10-12T12:34:48Z</time>
      </trkpt>
      <trkpt lat="46.1389" lon="3.47503">
        <ele>347</ele>
        <time>2013-10-12T12:34:55Z</time>
      </trkpt>
      <trkpt lat="46.13803" lon="3.47443">
        <ele>343</ele>
        <time>2013-10-12T12:35:10Z</time>
      </trkpt>
      <trkpt lat="46.13755" lon="3.47333">
        <ele>340</ele>
        <time>2013-10-12T12:35:26Z</time>
      </trkpt>
      <trkpt lat="46.1374" lon="3.47327">
        <ele>339</ele>
        <time>2013-10-12T12:35:29Z</time>
      </trkpt>
      <trkpt lat="46.1366" lon="3.47464">
        <ele>335</ele>
        <time>2013-10-12T12:35:51Z</time>
      </trkpt>
      <trkpt lat="46.13644" lon="3.47513">
        <ele>334</ele>
        <time>2013-10-12T12:35:59Z</time>
      </trkpt>
      <trkpt lat="46.13681" lon="3.47689">
        <ele>337</ele>
        <time>2013-10-12T12:36:20Z</time>
      </trkpt>
      <trkpt lat="46.13643" lon="3.47724">
        <ele>339</ele>
        <time>2013-10-12T12:36:31Z</time>
      </trkpt>
      <trkpt lat="46.13555" lon="3.47743">
        <ele>339</ele>
        <time>2013-10-12T12:37:03Z</time>
      </trkpt>
      <trkpt lat="46.13501" lon="3.47795">
        <ele>344</ele>
        <time>2013-10-12T12:37:28Z</time>
      </trkpt>
      <trkpt lat="46.13466" lon="3.47803">
        <ele>349</ele>
        <time>2013-10-12T12:37:52Z</time>
      </trkpt>
      <trkpt lat="46.13344" lon="3.47953">
        <ele>365</ele>
        <time>2013-10-12T12:39:13Z</time>
      </trkpt>
      <trkpt lat="46.13125" lon="3.48037">
        <ele>384</ele>
        <time>2013-10-12T12:40:56Z</time>
      </trkpt>
      <trkpt lat="46.13069" lon="3.48039">
        <ele>389</ele>
        <time>2013-10-12T12:41:22Z</time>
      </trkpt>
      <trkpt lat="46.13027" lon="3.47814">
        <ele>400</ele>
        <time>2013-10-12T12:42:02Z</time>
      </trkpt>
      <trkpt lat="46.12978" lon="3.47812">
        <ele>400</ele>
        <time>2013-10-12T12:42:20Z</time>
      </trkpt>
      <trkpt lat="46.1296" lon="3.47842">
        <ele>401</ele>
        <time>2013-10-12T12:42:32Z</time>
      </trkpt>
      <trkpt lat="46.12889" lon="3.4782">
        <ele>402</ele>
        <time>2013-10-12T12:42:54Z</time>
      </trkpt>
      <trkpt lat="46.12759" lon="3.47859">
        <ele>411</ele>
        <time>2013-10-12T12:43:48Z</time>
      </trkpt>
      <trkpt lat="46.12614" lon="3.4788">
        <ele>430</ele>
        <time>2013-10-12T12:45:16Z</time>
      </trkpt>
      <trkpt lat="46.12602" lon="3.47895">
        <ele>432</ele>
        <time>2013-10-12T12:45:31Z</time>
      </trkpt>
      <trkpt lat="46.12569" lon="3.48076">
        <ele>445</ele>
        <time>2013-10-12T12:47:05Z</time>
      </trkpt>
      <trkpt lat="46.12556" lon="3.48101">
        <ele>447</ele>
        <time>2013-10-12T12:47:18Z</time>
      </trkpt>
      <trkpt lat="46.12554" lon="3.48234">
        <ele>458</ele>
        <time>2013-10-12T12:48:13Z</time>
      </trkpt>
      <trkpt lat="46.12457" lon="3.48543">
        <ele>485</ele>
        <time>2013-10-12T12:50:26Z</time>
      </trkpt>
      <trkpt lat="46.12421" lon="3.48614">
        <ele>491</ele>
        <time>2013-10-12T12:51:00Z</time>
      </trkpt>
      <trkpt lat="46.12351" lon="3.48674">
        <ele>500</ele>
        <time>2013-10-12T12:51:48Z</time>
      </trkpt>
      <trkpt lat="46.12225" lon="3.4884">
        <ele>510</ele>
        <time>2013-10-12T12:52:52Z</time>
      </trkpt>
      <trkpt lat="46.12188" lon="3.48921">
        <ele>513</ele>
        <time>2013-10-12T12:53:18Z</time>
      </trkpt>
      <trkpt lat="46.12172" lon="3.49033">
        <ele>515</ele>
        <time>2013-10-12T12:53:33Z</time>
      </trkpt>
      <trkpt lat="46.12175" lon="3.49088">
        <ele>513</ele>
        <time>2013-10-12T12:53:41Z</time>
      </trkpt>
      <trkpt lat="46.12136" lon="3.4917">
        <ele>512</ele>
        <time>2013-10-12T12:53:55Z</time>
      </trkpt>
      <trkpt lat="46.11988" lon="3.49322">
        <ele>513</ele>
        <time>2013-10-12T12:54:33Z</time>
      </trkpt>
      <trkpt lat="46.11814" lon="3.49412">
        <ele>518</ele>
        <time>2013-10-12T12:55:22Z</time>
      </trkpt>
      <trkpt lat="46.1156" lon="3.49357">
        <ele>527</ele>
        <time>2013-10-12T12:56:25Z</time>
      </trkpt>
      <trkpt lat="46.11538" lon="3.4941">
        <ele>527</ele>
        <time>2013-10-12T12:56:38Z</time>
      </trkpt>
      <trkpt lat="46.11518" lon="3.49415">
        <ele>527</ele>
        <time>2013-10-12T12:56:47Z</time>
      </trkpt>
      <trkpt lat="46.11506" lon="3.49382">
        <ele>526</ele>
        <time>2013-10-12T12:56:55Z</time>
      </trkpt>
      <trkpt lat="46.11467" lon="3.49363">
        <ele>519</ele>
        <time>2013-10-12T12:57:22Z</time>
      </trkpt>
      <trkpt lat="46.11424" lon="3.49378">
        <ele>515</ele>
        <time>2013-10-12T12:58:23Z</time>
      </trkpt>
      <trkpt lat="46.1137" lon="3.49346">
        <ele>512</ele>
        <time>2013-10-12T12:58:44Z</time>
      </trkpt>
      <trkpt lat="46.11321" lon="3.49217">
        <ele>506</ele>
        <time>2013-10-12T12:59:11Z</time>
      </trkpt>
      <trkpt lat="46.1126" lon="3.4897">
        <ele>486</ele>
        <time>2013-10-12T13:00:25Z</time>
      </trkpt>
      <trkpt lat="46.11229" lon="3.48666">
        <ele>469</ele>
        <time>2013-10-12T13:01:04Z</time>
      </trkpt>
      <trkpt lat="46.11159" lon="3.48537">
        <ele>452</ele>
        <time>2013-10-12T13:01:25Z</time>
      </trkpt>
      <trkpt lat="46.11145" lon="3.48477">
        <ele>448</ele>
        <time>2013-10-12T13:01:33Z</time>
      </trkpt>
      <trkpt lat="46.11126" lon="3.48462">
        <ele>446</ele>
        <time>2013-10-12T13:01:38Z</time>
      </trkpt>
      <trkpt lat="46.11031" lon="3.48715">
        <ele>413</ele>
        <time>2013-10-12T13:02:10Z</time>
      </trkpt>
      <trkpt lat="46.11004" lon="3.48895">
        <ele>393</ele>
        <time>2013-10-12T13:02:34Z</time>
      </trkpt>
      <trkpt lat="46.1091" lon="3.4894">
        <ele>383</ele>
        <time>2013-10-12T13:02:49Z</time>
      </trkpt>
      <trkpt lat="46.10849" lon="3.49046">
        <ele>373</ele>
        <time>2013-10-12T13:03:12Z</time>
      </trkpt>
      <trkpt lat="46.10809" lon="3.49084">
        <ele>370</ele>
        <time>2013-10-12T13:03:29Z</time>
      </trkpt>
      <trkpt lat="46.10725" lon="3.49211">
        <ele>360</ele>
        <time>2013-10-12T13:03:50Z</time>
      </trkpt>
      <trkpt lat="46.10529" lon="3.49593">
        <ele>352</ele>
        <time>2013-10-12T13:04:42Z</time>
      </trkpt>
      <trkpt lat="46.10384" lon="3.49846">
        <ele>351</ele>
        <time>2013-10-12T13:05:19Z</time>
      </trkpt>
      <trkpt lat="46.10295" lon="3.50073">
        <ele>351</ele>
        <time>2013-10-12T13:05:55Z</time>
      </trkpt>
      <trkpt lat="46.1032" lon="3.50125">
        <ele>350</ele>
        <time>2013-10-12T13:06:29Z</time>
      </trkpt>
      <trkpt lat="46.10312" lon="3.50339">
        <ele>362</ele>
        <time>2013-10-12T13:09:50Z</time>
      </trkpt>
      <trkpt lat="46.10265" lon="3.5056">
        <ele>390</ele>
        <time>2013-10-12T13:12:37Z</time>
      </trkpt>
      <trkpt lat="46.10274" lon="3.5056">
        <ele>392</ele>
        <time>2013-10-12T13:13:00Z</time>
      </trkpt>
      <trkpt lat="46.10266" lon="3.5064">
        <ele>414</ele>
        <time>2013-10-12T13:17:32Z</time>
      </trkpt>
      <trkpt lat="46.10307" lon="3.50827">
        <ele>441</ele>
        <time>2013-10-12T13:20:00Z</time>
      </trkpt>
      <trkpt lat="46.10337" lon="3.5085">
        <ele>448</ele>
        <time>2013-10-12T13:20:27Z</time>
      </trkpt>
      <trkpt lat="46.10347" lon="3.50897">
        <ele>450</ele>
        <time>2013-10-12T13:20:38Z</time>
      </trkpt>
      <trkpt lat="46.10478" lon="3.50895">
        <ele>454</ele>
        <time>2013-10-12T13:21:57Z</time>
      </trkpt>
      <trkpt lat="46.10508" lon="3.50914">
        <ele>454</ele>
        <time>2013-10-12T13:22:26Z</time>
      </trkpt>
      <trkpt lat="46.10487" lon="3.51084">
        <ele>448</ele>
        <time>2013-10-12T13:24:26Z</time>
      </trkpt>
      <trkpt lat="46.10497" lon="3.51125">
        <ele>448</ele>
        <time>2013-10-12T13:24:44Z</time>
      </trkpt>
      <trkpt lat="46.10525" lon="3.51166">
        <ele>448</ele>
        <time>2013-10-12T13:25:10Z</time>
      </trkpt>
      <trkpt lat="46.10511" lon="3.51215">
        <ele>446</ele>
        <time>2013-10-12T13:25:20Z</time>
      </trkpt>
      <trkpt lat="46.10473" lon="3.51245">
        <ele>446</ele>
        <time>2013-10-12T13:25:32Z</time>
      </trkpt>
      <trkpt lat="46.10436" lon="3.51316">
        <ele>445</ele>
        <time>2013-10-12T13:25:49Z</time>
      </trkpt>
      <trkpt lat="46.10378" lon="3.51354">
        <ele>443</ele>
        <time>2013-10-12T13:26:04Z</time>
      </trkpt>
      <trkpt lat="46.10354" lon="3.51425">
        <ele>441</ele>
        <time>2013-10-12T13:26:22Z</time>
      </trkpt>
      <trkpt lat="46.10352" lon="3.51481">
        <ele>441</ele>
        <time>2013-10-12T13:26:37Z</time>
      </trkpt>
      <trkpt lat="46.10371" lon="3.5159">
        <ele>442</ele>
        <time>2013-10-12T13:27:10Z</time>
      </trkpt>
      <trkpt lat="46.10513" lon="3.51882">
        <ele>461</ele>
        <time>2013-10-12T13:29:11Z</time>
      </trkpt>
      <trkpt lat="46.10522" lon="3.51934">
        <ele>467</ele>
        <time>2013-10-12T13:29:34Z</time>
      </trkpt>
      <trkpt lat="46.10416" lon="3.52451">
        <ele>487</ele>
        <time>2013-10-12T13:31:02Z</time>
      </trkpt>
      <trkpt lat="46.10386" lon="3.52719">
        <ele>492</ele>
        <time>2013-10-12T13:31:31Z</time>
      </trkpt>
      <trkpt lat="46.10173" lon="3.53039">
        <ele>497</ele>
        <time>2013-10-12T13:32:57Z</time>
      </trkpt>
      <trkpt lat="46.10078" lon="3.53153">
        <ele>507</ele>
        <time>2013-10-12T13:33:47Z</time>
      </trkpt>
      <trkpt lat="46.10035" lon="3.53234">
        <ele>513</ele>
        <time>2013-10-12T13:34:18Z</time>
      </trkpt>
      <trkpt lat="46.09991" lon="3.53249">
        <ele>517</ele>
        <time>2013-10-12T13:34:41Z</time>
      </trkpt>
      <trkpt lat="46.09967" lon="3.53288">
        <ele>519</ele>
        <time>2013-10-12T13:34:54Z</time>
      </trkpt>
      <trkpt lat="46.09921" lon="3.53423">
        <ele>528</ele>
        <time>2013-10-12T13:35:12Z</time>
      </trkpt>
      <trkpt lat="46.09765" lon="3.53479">
        <ele>525</ele>
        <time>2013-10-12T13:35:30Z</time>
      </trkpt>
      <trkpt lat="46.09696" lon="3.53586">
        <ele>520</ele>
        <time>2013-10-12T13:35:40Z</time>
      </trkpt>
      <trkpt lat="46.09638" lon="3.53618">
        <ele>512</ele>
        <time>2013-10-12T13:35:46Z</time>
      </trkpt>
      <trkpt lat="46.09614" lon="3.53648">
        <ele>507</ele>
        <time>2013-10-12T13:35:51Z</time>
      </trkpt>
      <trkpt lat="46.09599" lon="3.53695">
        <ele>504</ele>
        <time>2013-10-12T13:35:58Z</time>
      </trkpt>
      <trkpt lat="46.0961" lon="3.53728">
        <ele>499</ele>
        <time>2013-10-12T13:36:05Z</time>
      </trkpt>
      <trkpt lat="46.09597" lon="3.53738">
        <ele>498</ele>
        <time>2013-10-12T13:36:11Z</time>
      </trkpt>
      <trkpt lat="46.09539" lon="3.53723">
        <ele>489</ele>
        <time>2013-10-12T13:36:30Z</time>
      </trkpt>
      <trkpt lat="46.09469" lon="3.53811">
        <ele>480</ele>
        <time>2013-10-12T13:36:53Z</time>
      </trkpt>
      <trkpt lat="46.09386" lon="3.53828">
        <ele>474</ele>
        <time>2013-10-12T13:37:08Z</time>
      </trkpt>
      <trkpt lat="46.09162" lon="3.53755">
        <ele>456</ele>
        <time>2013-10-12T13:37:49Z</time>
      </trkpt>
      <trkpt lat="46.09107" lon="3.53764">
        <ele>456</ele>
        <time>2013-10-12T13:38:06Z</time>
      </trkpt>
      <trkpt lat="46.09015" lon="3.5382">
        <ele>450</ele>
        <time>2013-10-12T13:38:31Z</time>
      </trkpt>
      <trkpt lat="46.08965" lon="3.53818">
        <ele>447</ele>
        <time>2013-10-12T13:38:45Z</time>
      </trkpt>
      <trkpt lat="46.08876" lon="3.5376">
        <ele>432</ele>
        <time>2013-10-12T13:39:06Z</time>
      </trkpt>
      <trkpt lat="46.0882" lon="3.53781">
        <ele>428</ele>
        <time>2013-10-12T13:39:28Z</time>
      </trkpt>
      <trkpt lat="46.08764" lon="3.53768">
        <ele>418</ele>
        <time>2013-10-12T13:39:52Z</time>
      </trkpt>
      <trkpt lat="46.08745" lon="3.53783">
        <ele>415</ele>
        <time>2013-10-12T13:40:00Z</time>
      </trkpt>
      <trkpt lat="46.08697" lon="3.53738">
        <ele>400</ele>
        <time>2013-10-12T13:40:15Z</time>
      </trkpt>
      <trkpt lat="46.08662" lon="3.53734">
        <ele>394</ele>
        <time>2013-10-12T13:40:24Z</time>
      </trkpt>
      <trkpt lat="46.08604" lon="3.53693">
        <ele>393</ele>
        <time>2013-10-12T13:40:46Z</time>
      </trkpt>
      <trkpt lat="46.0859" lon="3.53668">
        <ele>394</ele>
        <time>2013-10-12T13:40:54Z</time>
      </trkpt>
      <trkpt lat="46.08593" lon="3.53642">
        <ele>394</ele>
        <time>2013-10-12T13:41:00Z</time>
      </trkpt>
      <trkpt lat="46.08668" lon="3.53562">
        <ele>394</ele>
        <time>2013-10-12T13:41:40Z</time>
      </trkpt>
      <trkpt lat="46.08685" lon="3.53519">
        <ele>394</ele>
        <time>2013-10-12T13:42:01Z</time>
      </trkpt>
      <trkpt lat="46.08651" lon="3.53453">
        <ele>399</ele>
        <time>2013-10-12T13:42:47Z</time>
      </trkpt>
      <trkpt lat="46.08682" lon="3.5338">
        <ele>399</ele>
        <time>2013-10-12T13:43:21Z</time>
      </trkpt>
      <trkpt lat="46.08607" lon="3.5323">
        <ele>416</ele>
        <time>2013-10-12T13:44:42Z</time>
      </trkpt>
      <trkpt lat="46.08513" lon="3.53088">
        <ele>440</ele>
        <time>2013-10-12T13:45:59Z</time>
      </trkpt>
      <trkpt lat="46.08486" lon="3.52979">
        <ele>448</ele>
        <time>2013-10-12T13:46:50Z</time>
      </trkpt>
      <trkpt lat="46.08435" lon="3.52901">
        <ele>452</ele>
        <time>2013-10-12T13:47:34Z</time>
      </trkpt>
      <trkpt lat="46.08414" lon="3.52897">
        <ele>452</ele>
        <time>2013-10-12T13:47:50Z</time>
      </trkpt>
      <trkpt lat="46.08386" lon="3.52914">
        <ele>455</ele>
        <time>2013-10-12T13:48:11Z</time>
      </trkpt>
      <trkpt lat="46.0831" lon="3.52901">
        <ele>470</ele>
        <time>2013-10-12T13:49:11Z</time>
      </trkpt>
      <trkpt lat="46.08284" lon="3.52876">
        <ele>476</ele>
        <time>2013-10-12T13:49:31Z</time>
      </trkpt>
      <trkpt lat="46.08179" lon="3.52824">
        <ele>489</ele>
        <time>2013-10-12T13:50:23Z</time>
      </trkpt>
      <trkpt lat="46.07958" lon="3.5264">
        <ele>521</ele>
        <time>2013-10-12T13:52:35Z</time>
      </trkpt>
      <trkpt lat="46.07826" lon="3.52625">
        <ele>538</ele>
        <time>2013-10-12T13:53:50Z</time>
      </trkpt>
      <trkpt lat="46.07806" lon="3.52766">
        <ele>546</ele>
        <time>2013-10-12T13:54:08Z</time>
      </trkpt>
      <trkpt lat="46.07841" lon="3.52932">
        <ele>547</ele>
        <time>2013-10-12T13:54:41Z</time>
      </trkpt>
      <trkpt lat="46.0789" lon="3.53032">
        <ele>545</ele>
        <time>2013-10-12T13:55:00Z</time>
      </trkpt>
      <trkpt lat="46.07903" lon="3.53101">
        <ele>543</ele>
        <time>2013-10-12T13:55:09Z</time>
      </trkpt>
      <trkpt lat="46.07822" lon="3.5317">
        <ele>532</ele>
        <time>2013-10-12T13:55:29Z</time>
      </trkpt>
      <trkpt lat="46.07731" lon="3.53198">
        <ele>527</ele>
        <time>2013-10-12T13:55:48Z</time>
      </trkpt>
      <trkpt lat="46.07669" lon="3.53258">
        <ele>524</ele>
        <time>2013-10-12T13:56:00Z</time>
      </trkpt>
      <trkpt lat="46.0764" lon="3.53328">
        <ele>520</ele>
        <time>2013-10-12T13:56:14Z</time>
      </trkpt>
      <trkpt lat="46.0761" lon="3.53346">
        <ele>519</ele>
        <time>2013-10-12T13:56:21Z</time>
      </trkpt>
      <trkpt lat="46.07493" lon="3.53341">
        <ele>508</ele>
        <time>2013-10-12T13:56:45Z</time>
      </trkpt>
      <trkpt lat="46.0747" lon="3.53408">
        <ele>502</ele>
        <time>2013-10-12T13:57:01Z</time>
      </trkpt>
      <trkpt lat="46.07474" lon="3.53453">
        <ele>500</ele>
        <time>2013-10-12T13:57:08Z</time>
      </trkpt>
      <trkpt lat="46.07577" lon="3.53625">
        <ele>474</ele>
        <time>2013-10-12T13:57:41Z</time>
      </trkpt>
      <trkpt lat="46.07625" lon="3.53738">
        <ele>465</ele>
        <time>2013-10-12T13:57:57Z</time>
      </trkpt>
      <trkpt lat="46.07671" lon="3.53807">
        <ele>460</ele>
        <time>2013-10-12T13:58:06Z</time>
      </trkpt>
      <trkpt lat="46.07669" lon="3.53856">
        <ele>455</ele>
        <time>2013-10-12T13:58:12Z</time>
      </trkpt>
      <trkpt lat="46.07576" lon="3.53972">
        <ele>445</ele>
        <time>2013-10-12T13:58:29Z</time>
      </trkpt>
      <trkpt lat="46.07549" lon="3.5397">
        <ele>444</ele>
        <time>2013-10-12T13:58:33Z</time>
      </trkpt>
      <trkpt lat="46.07539" lon="3.53949">
        <ele>443</ele>
        <time>2013-10-12T13:58:36Z</time>
      </trkpt>
      <trkpt lat="46.07523" lon="3.53951">
        <ele>440</ele>
        <time>2013-10-12T13:58:39Z</time>
      </trkpt>
      <trkpt lat="46.07554" lon="3.54054">
        <ele>432</ele>
        <time>2013-10-12T13:58:50Z</time>
      </trkpt>
      <trkpt lat="46.07587" lon="3.54099">
        <ele>429</ele>
        <time>2013-10-12T13:58:57Z</time>
      </trkpt>
      <trkpt lat="46.07541" lon="3.54101">
        <ele>422</ele>
        <time>2013-10-12T13:59:05Z</time>
      </trkpt>
      <trkpt lat="46.07473" lon="3.54155">
        <ele>416</ele>
        <time>2013-10-12T13:59:26Z</time>
      </trkpt>
      <trkpt lat="46.0742" lon="3.54281">
        <ele>407</ele>
        <time>2013-10-12T13:59:51Z</time>
      </trkpt>
      <trkpt lat="46.07388" lon="3.54489">
        <ele>407</ele>
        <time>2013-10-12T14:00:26Z</time>
      </trkpt>
      <trkpt lat="46.07359" lon="3.54597">
        <ele>409</ele>
        <time>2013-10-12T14:00:43Z</time>
      </trkpt>
      <trkpt lat="46.07353" lon="3.54725">
        <ele>403</ele>
        <time>2013-10-12T14:01:01Z</time>
      </trkpt>
      <trkpt lat="46.073" lon="3.54961">
        <ele>398</ele>
        <time>2013-10-12T14:01:55Z</time>
      </trkpt>
      <trkpt lat="46.07306" lon="3.55037">
        <ele>398</ele>
        <time>2013-10-12T14:02:08Z</time>
      </trkpt>
      <trkpt lat="46.07271" lon="3.55062">
        <ele>399</ele>
        <time>2013-10-12T14:02:18Z</time>
      </trkpt>
      <trkpt lat="46.07194" lon="3.55052">
        <ele>403</ele>
        <time>2013-10-12T14:02:55Z</time>
      </trkpt>
      <trkpt lat="46.07023" lon="3.54854">
        <ele>421</ele>
        <time>2013-10-12T14:04:39Z</time>
      </trkpt>
      <trkpt lat="46.06965" lon="3.54837">
        <ele>426</ele>
        <time>2013-10-12T14:05:08Z</time>
      </trkpt>
      <trkpt lat="46.06937" lon="3.54897">
        <ele>432</ele>
        <time>2013-10-12T14:05:29Z</time>
      </trkpt>
      <trkpt lat="46.06852" lon="3.54813">
        <ele>446</ele>
        <time>2013-10-12T14:06:21Z</time>
      </trkpt>
      <trkpt lat="46.06817" lon="3.54796">
        <ele>450</ele>
        <time>2013-10-12T14:06:41Z</time>
      </trkpt>
      <trkpt lat="46.06778" lon="3.54721">
        <ele>463</ele>
        <time>2013-10-12T14:07:04Z</time>
      </trkpt>
      <trkpt lat="46.06779" lon="3.54601">
        <ele>463</ele>
        <time>2013-10-12T14:07:18Z</time>
      </trkpt>
      <trkpt lat="46.0681" lon="3.54539">
        <ele>459</ele>
        <time>2013-10-12T14:07:36Z</time>
      </trkpt>
      <trkpt lat="46.06817" lon="3.54479">
        <ele>460</ele>
        <time>2013-10-12T14:07:52Z</time>
      </trkpt>
      <trkpt lat="46.06744" lon="3.5423">
        <ele>466</ele>
        <time>2013-10-12T14:09:03Z</time>
      </trkpt>
      <trkpt lat="46.06676" lon="3.54157">
        <ele>476</ele>
        <time>2013-10-12T14:10:08Z</time>
      </trkpt>
      <trkpt lat="46.06619" lon="3.54017">
        <ele>494</ele>
        <time>2013-10-12T14:11:25Z</time>
      </trkpt>
      <trkpt lat="46.06506" lon="3.5391">
        <ele>499</ele>
        <time>2013-10-12T14:12:02Z</time>
      </trkpt>
      <trkpt lat="46.06485" lon="3.53803">
        <ele>505</ele>
        <time>2013-10-12T14:12:37Z</time>
      </trkpt>
      <trkpt lat="46.06521" lon="3.5371">
        <ele>501</ele>
        <time>2013-10-12T14:13:42Z</time>
      </trkpt>
      <trkpt lat="46.06521" lon="3.53586">
        <ele>505</ele>
        <time>2013-10-12T14:14:48Z</time>
      </trkpt>
      <trkpt lat="46.06464" lon="3.53446">
        <ele>517</ele>
        <time>2013-10-12T14:15:52Z</time>
      </trkpt>
      <trkpt lat="46.06455" lon="3.53313">
        <ele>530</ele>
        <time>2013-10-12T14:16:56Z</time>
      </trkpt>
      <trkpt lat="46.06433" lon="3.53241">
        <ele>536</ele>
        <time>2013-10-12T14:17:17Z</time>
      </trkpt>
      <trkpt lat="46.06441" lon="3.53112">
        <ele>546</ele>
        <time>2013-10-12T14:17:58Z</time>
      </trkpt>
      <trkpt lat="46.06432" lon="3.5306">
        <ele>550</ele>
        <time>2013-10-12T14:18:17Z</time>
      </trkpt>
      <trkpt lat="46.0645" lon="3.52981">
        <ele>553</ele>
        <time>2013-10-12T14:18:32Z</time>
      </trkpt>
      <trkpt lat="46.06513" lon="3.52901">
        <ele>559</ele>
        <time>2013-10-12T14:18:56Z</time>
      </trkpt>
      <trkpt lat="46.06504" lon="3.52822">
        <ele>581</ele>
        <time>2013-10-12T14:19:12Z</time>
      </trkpt>
      <trkpt lat="46.06464" lon="3.52732">
        <ele>585</ele>
        <time>2013-10-12T14:19:34Z</time>
      </trkpt>
      <trkpt lat="46.06435" lon="3.52708">
        <ele>587</ele>
        <time>2013-10-12T14:19:40Z</time>
      </trkpt>
      <trkpt lat="46.06417" lon="3.52644">
        <ele>587</ele>
        <time>2013-10-12T14:19:52Z</time>
      </trkpt>
      <trkpt lat="46.06413" lon="3.52539">
        <ele>582</ele>
        <time>2013-10-12T14:20:02Z</time>
      </trkpt>
      <trkpt lat="46.06248" lon="3.52142">
        <ele>572</ele>
        <time>2013-10-12T14:20:35Z</time>
      </trkpt>
      <trkpt lat="46.06254" lon="3.51998">
        <ele>571</ele>
        <time>2013-10-12T14:20:43Z</time>
      </trkpt>
      <trkpt lat="46.06242" lon="3.51852">
        <ele>561</ele>
        <time>2013-10-12T14:20:53Z</time>
      </trkpt>
      <trkpt lat="46.06249" lon="3.51829">
        <ele>560</ele>
        <time>2013-10-12T14:20:59Z</time>
      </trkpt>
      <trkpt lat="46.06292" lon="3.51784">
        <ele>547</ele>
        <time>2013-10-12T14:22:03Z</time>
      </trkpt>
      <trkpt lat="46.06265" lon="3.51526">
        <ele>545</ele>
        <time>2013-10-12T14:23:59Z</time>
      </trkpt>
      <trkpt lat="46.06268" lon="3.51412">
        <ele>548</ele>
        <time>2013-10-12T14:24:35Z</time>
      </trkpt>
      <trkpt lat="46.06287" lon="3.51331">
        <ele>550</ele>
        <time>2013-10-12T14:24:52Z</time>
      </trkpt>
      <trkpt lat="46.0628" lon="3.51157">
        <ele>549</ele>
        <time>2013-10-12T14:25:18Z</time>
      </trkpt>
      <trkpt lat="46.0631" lon="3.51095">
        <ele>548</ele>
        <time>2013-10-12T14:25:32Z</time>
      </trkpt>
      <trkpt lat="46.06284" lon="3.51063">
        <ele>549</ele>
        <time>2013-10-12T14:25:34Z</time>
      </trkpt>
      <trkpt lat="46.06286" lon="3.51048">
        <ele>548</ele>
        <time>2013-10-12T14:25:35Z</time>
      </trkpt>
      <trkpt lat="46.06413" lon="3.50964">
        <ele>564</ele>
        <time>2013-10-12T14:26:06Z</time>
      </trkpt>
      <trkpt lat="46.06466" lon="3.50955">
        <ele>562</ele>
        <time>2013-10-12T14:26:15Z</time>
      </trkpt>
      <trkpt lat="46.06516" lon="3.51039">
        <ele>556</ele>
        <time>2013-10-12T14:26:26Z</time>
      </trkpt>
      <trkpt lat="46.06602" lon="3.51228">
        <ele>537</ele>
        <time>2013-10-12T14:26:48Z</time>
      </trkpt>
      <trkpt lat="46.06783" lon="3.51552">
        <ele>522</ele>
        <time>2013-10-12T14:27:28Z</time>
      </trkpt>
      <trkpt lat="46.06992" lon="3.51558">
        <ele>496</ele>
        <time>2013-10-12T14:28:01Z</time>
      </trkpt>
      <trkpt lat="46.07075" lon="3.51595">
        <ele>496</ele>
        <time>2013-10-12T14:28:13Z</time>
      </trkpt>
      <trkpt lat="46.07114" lon="3.51661">
        <ele>491</ele>
        <time>2013-10-12T14:28:23Z</time>
      </trkpt>
      <trkpt lat="46.07121" lon="3.51713">
        <ele>490</ele>
        <time>2013-10-12T14:28:30Z</time>
      </trkpt>
      <trkpt lat="46.07114" lon="3.51818">
        <ele>477</ele>
        <time>2013-10-12T14:28:45Z</time>
      </trkpt>
      <trkpt lat="46.07132" lon="3.51818">
        <ele>476</ele>
        <time>2013-10-12T14:28:51Z</time>
      </trkpt>
      <trkpt lat="46.07167" lon="3.51779">
        <ele>473</ele>
        <time>2013-10-12T14:29:19Z</time>
      </trkpt>
      <trkpt lat="46.07269" lon="3.51732">
        <ele>473</ele>
        <time>2013-10-12T14:30:17Z</time>
      </trkpt>
      <trkpt lat="46.07355" lon="3.51747">
        <ele>477</ele>
        <time>2013-10-12T14:31:21Z</time>
      </trkpt>
      <trkpt lat="46.07399" lon="3.51771">
        <ele>484</ele>
        <time>2013-10-12T14:32:00Z</time>
      </trkpt>
      <trkpt lat="46.07468" lon="3.51895">
        <ele>506</ele>
        <time>2013-10-12T14:33:19Z</time>
      </trkpt>
      <trkpt lat="46.075" lon="3.51985">
        <ele>513</ele>
        <time>2013-10-12T14:34:07Z</time>
      </trkpt>
      <trkpt lat="46.07764" lon="3.51977">
        <ele>547</ele>
        <time>2013-10-12T14:36:52Z</time>
      </trkpt>
      <trkpt lat="46.08107" lon="3.52015">
        <ele>567</ele>
        <time>2013-10-12T14:38:37Z</time>
      </trkpt>
      <trkpt lat="46.08236" lon="3.51947">
        <ele>576</ele>
        <time>2013-10-12T14:39:00Z</time>
      </trkpt>
      <trkpt lat="46.08304" lon="3.5188">
        <ele>576</ele>
        <time>2013-10-12T14:39:11Z</time>
      </trkpt>
      <trkpt lat="46.0858" lon="3.51502">
        <ele>569</ele>
        <time>2013-10-12T14:39:56Z</time>
      </trkpt>
      <trkpt lat="46.0865" lon="3.51331">
        <ele>563</ele>
        <time>2013-10-12T14:40:15Z</time>
      </trkpt>
      <trkpt lat="46.08696" lon="3.5112">
        <ele>559</ele>
        <time>2013-10-12T14:40:40Z</time>
      </trkpt>
      <trkpt lat="46.08724" lon="3.51118">
        <ele>559</ele>
        <time>2013-10-12T14:40:50Z</time>
      </trkpt>
      <trkpt lat="46.08939" lon="3.51217">
        <ele>524</ele>
        <time>2013-10-12T14:41:41Z</time>
      </trkpt>
      <trkpt lat="46.09069" lon="3.51234">
        <ele>520</ele>
        <time>2013-10-12T14:41:59Z</time>
      </trkpt>
      <trkpt lat="46.09003" lon="3.50975">
        <ele>522</ele>
        <time>2013-10-12T14:43:04Z</time>
      </trkpt>
      <trkpt lat="46.09139" lon="3.50736">
        <ele>516</ele>
        <time>2013-10-12T14:43:41Z</time>
      </trkpt>
      <trkpt lat="46.09231" lon="3.50616">
        <ele>514</ele>
        <time>2013-10-12T14:44:02Z</time>
      </trkpt>
      <trkpt lat="46.09286" lon="3.50633">
        <ele>513</ele>
        <time>2013-10-12T14:44:28Z</time>
      </trkpt>
      <trkpt lat="46.09299" lon="3.50625">
        <ele>513</ele>
        <time>2013-10-12T14:44:32Z</time>
      </trkpt>
      <trkpt lat="46.09326" lon="3.50659">
        <ele>509</ele>
        <time>2013-10-12T14:44:40Z</time>
      </trkpt>
      <trkpt lat="46.09436" lon="3.50711">
        <ele>499</ele>
        <time>2013-10-12T14:45:01Z</time>
      </trkpt>
      <trkpt lat="46.09459" lon="3.50668">
        <ele>497</ele>
        <time>2013-10-12T14:45:18Z</time>
      </trkpt>
      <trkpt lat="46.09509" lon="3.50698">
        <ele>495</ele>
        <time>2013-10-12T14:45:32Z</time>
      </trkpt>
      <trkpt lat="46.09525" lon="3.50771">
        <ele>489</ele>
        <time>2013-10-12T14:45:40Z</time>
      </trkpt>
      <trkpt lat="46.09584" lon="3.50887">
        <ele>480</ele>
        <time>2013-10-12T14:46:08Z</time>
      </trkpt>
      <trkpt lat="46.09631" lon="3.50917">
        <ele>477</ele>
        <time>2013-10-12T14:46:20Z</time>
      </trkpt>
      <trkpt lat="46.09693" lon="3.50908">
        <ele>475</ele>
        <time>2013-10-12T14:46:30Z</time>
      </trkpt>
      <trkpt lat="46.09723" lon="3.50861">
        <ele>474</ele>
        <time>2013-10-12T14:46:39Z</time>
      </trkpt>
      <trkpt lat="46.09734" lon="3.50803">
        <ele>473</ele>
        <time>2013-10-12T14:46:50Z</time>
      </trkpt>
      <trkpt lat="46.09776" lon="3.50717">
        <ele>471</ele>
        <time>2013-10-12T14:47:12Z</time>
      </trkpt>
      <trkpt lat="46.09875" lon="3.50769">
        <ele>471</ele>
        <time>2013-10-12T14:47:44Z</time>
      </trkpt>
      <trkpt lat="46.09965" lon="3.5073">
        <ele>473</ele>
        <time>2013-10-12T14:48:02Z</time>
      </trkpt>
      <trkpt lat="46.09963" lon="3.50715">
        <ele>473</ele>
        <time>2013-10-12T14:48:14Z</time>
      </trkpt>
      <trkpt lat="46.09902" lon="3.50693">
        <ele>471</ele>
        <time>2013-10-12T14:49:16Z</time>
      </trkpt>
      <trkpt lat="46.09852" lon="3.50505">
        <ele>505</ele>
        <time>2013-10-12T14:52:46Z</time>
      </trkpt>
      <trkpt lat="46.09679" lon="3.50329">
        <ele>528</ele>
        <time>2013-10-12T14:54:58Z</time>
      </trkpt>
      <trkpt lat="46.09591" lon="3.5005">
        <ele>541</ele>
        <time>2013-10-12T14:56:27Z</time>
      </trkpt>
      <trkpt lat="46.09602" lon="3.49882">
        <ele>544</ele>
        <time>2013-10-12T14:57:11Z</time>
      </trkpt>
      <trkpt lat="46.09569" lon="3.49627">
        <ele>543</ele>
        <time>2013-10-12T14:57:43Z</time>
      </trkpt>
      <trkpt lat="46.09583" lon="3.49309">
        <ele>519</ele>
        <time>2013-10-12T14:58:07Z</time>
      </trkpt>
      <trkpt lat="46.09557" lon="3.49144">
        <ele>506</ele>
        <time>2013-10-12T14:58:20Z</time>
      </trkpt>
      <trkpt lat="46.09561" lon="3.49099">
        <ele>504</ele>
        <time>2013-10-12T14:58:24Z</time>
      </trkpt>
      <trkpt lat="46.09664" lon="3.48771">
        <ele>489</ele>
        <time>2013-10-12T14:58:56Z</time>
      </trkpt>
      <trkpt lat="46.09745" lon="3.48588">
        <ele>475</ele>
        <time>2013-10-12T14:59:12Z</time>
      </trkpt>
      <trkpt lat="46.09815" lon="3.48492">
        <ele>466</ele>
        <time>2013-10-12T14:59:22Z</time>
      </trkpt>
      <trkpt lat="46.09909" lon="3.48327">
        <ele>453</ele>
        <time>2013-10-12T14:59:46Z</time>
      </trkpt>
      <trkpt lat="46.10002" lon="3.48234">
        <ele>437</ele>
        <time>2013-10-12T15:00:42Z</time>
      </trkpt>
      <trkpt lat="46.10041" lon="3.48215">
        <ele>430</ele>
        <time>2013-10-12T15:01:00Z</time>
      </trkpt>
      <trkpt lat="46.10057" lon="3.48187">
        <ele>426</ele>
        <time>2013-10-12T15:01:10Z</time>
      </trkpt>
      <trkpt lat="46.10054" lon="3.48138">
        <ele>420</ele>
        <time>2013-10-12T15:01:45Z</time>
      </trkpt>
      <trkpt lat="46.10027" lon="3.48082">
        <ele>420</ele>
        <time>2013-10-12T15:02:18Z</time>
      </trkpt>
      <trkpt lat="46.10004" lon="3.4796">
        <ele>423</ele>
        <time>2013-10-12T15:03:09Z</time>
      </trkpt>
      <trkpt lat="46.10002" lon="3.47848">
        <ele>428</ele>
        <time>2013-10-12T15:06:38Z</time>
      </trkpt>
      <trkpt lat="46.09933" lon="3.47604">
        <ele>434</ele>
        <time>2013-10-12T15:07:42Z</time>
      </trkpt>
      <trkpt lat="46.0994" lon="3.47582">
        <ele>435</ele>
        <time>2013-10-12T15:07:48Z</time>
      </trkpt>
      <trkpt lat="46.10029" lon="3.47578">
        <ele>444</ele>
        <time>2013-10-12T15:08:13Z</time>
      </trkpt>
      <trkpt lat="46.10112" lon="3.47526">
        <ele>444</ele>
        <time>2013-10-12T15:08:34Z</time>
      </trkpt>
      <trkpt lat="46.10124" lon="3.47408">
        <ele>444</ele>
        <time>2013-10-12T15:08:56Z</time>
      </trkpt>
      <trkpt lat="46.10187" lon="3.47262">
        <ele>444</ele>
        <time>2013-10-12T15:09:22Z</time>
      </trkpt>
      <trkpt lat="46.10272" lon="3.47116">
        <ele>442</ele>
        <time>2013-10-12T15:09:55Z</time>
      </trkpt>
      <trkpt lat="46.10337" lon="3.47078">
        <ele>441</ele>
        <time>2013-10-12T15:10:15Z</time>
      </trkpt>
      <trkpt lat="46.10302" lon="3.46949">
        <ele>445</ele>
        <time>2013-10-12T15:11:20Z</time>
      </trkpt>
      <trkpt lat="46.10527" lon="3.46855">
        <ele>455</ele>
        <time>2013-10-12T15:12:29Z</time>
      </trkpt>
      <trkpt lat="46.10609" lon="3.46799">
        <ele>453</ele>
        <time>2013-10-12T15:12:50Z</time>
      </trkpt>
      <trkpt lat="46.1069" lon="3.46771">
        <ele>454</ele>
        <time>2013-10-12T15:13:06Z</time>
      </trkpt>
      <trkpt lat="46.10783" lon="3.46589">
        <ele>458</ele>
        <time>2013-10-12T15:13:39Z</time>
      </trkpt>
      <trkpt lat="46.1078" lon="3.46501">
        <ele>461</ele>
        <time>2013-10-12T15:13:56Z</time>
      </trkpt>
      <trkpt lat="46.10925" lon="3.46458">
        <ele>458</ele>
        <time>2013-10-12T15:14:23Z</time>
      </trkpt>
      <trkpt lat="46.1104" lon="3.46449">
        <ele>455</ele>
        <time>2013-10-12T15:14:36Z</time>
      </trkpt>
      <trkpt lat="46.11137" lon="3.46471">
        <ele>451</ele>
        <time>2013-10-12T15:14:55Z</time>
      </trkpt>
      <trkpt lat="46.11301" lon="3.46462">
        <ele>453</ele>
        <time>2013-10-12T15:15:30Z</time>
      </trkpt>
      <trkpt lat="46.11389" lon="3.46481">
        <ele>449</ele>
        <time>2013-10-12T15:15:50Z</time>
      </trkpt>
      <trkpt lat="46.11411" lon="3.46507">
        <ele>448</ele>
        <time>2013-10-12T15:15:54Z</time>
      </trkpt>
      <trkpt lat="46.11443" lon="3.46516">
        <ele>447</ele>
        <time>2013-10-12T15:15:57Z</time>
      </trkpt>
      <trkpt lat="46.11497" lon="3.46488">
        <ele>447</ele>
        <time>2013-10-12T15:16:09Z</time>
      </trkpt>
      <trkpt lat="46.11585" lon="3.46372">
        <ele>445</ele>
        <time>2013-10-12T15:16:32Z</time>
      </trkpt>
      <trkpt lat="46.11634" lon="3.46335">
        <ele>443</ele>
        <time>2013-10-12T15:16:44Z</time>
      </trkpt>
      <trkpt lat="46.11741" lon="3.46335">
        <ele>435</ele>
        <time>2013-10-12T15:17:03Z</time>
      </trkpt>
      <trkpt lat="46.12001" lon="3.46213">
        <ele>419</ele>
        <time>2013-10-12T15:17:52Z</time>
      </trkpt>
      <trkpt lat="46.12148" lon="3.462">
        <ele>417</ele>
        <time>2013-10-12T15:18:17Z</time>
      </trkpt>
      <trkpt lat="46.12171" lon="3.46269">
        <ele>411</ele>
        <time>2013-10-12T15:18:28Z</time>
      </trkpt>
      <trkpt lat="46.12284" lon="3.46252">
        <ele>403</ele>
        <time>2013-10-12T15:18:55Z</time>
      </trkpt>
      <trkpt lat="46.12367" lon="3.46144">
        <ele>401</ele>
        <time>2013-10-12T15:19:21Z</time>
      </trkpt>
      <trkpt lat="46.12413" lon="3.4611">
        <ele>399</ele>
        <time>2013-10-12T15:19:33Z</time>
      </trkpt>
      <trkpt lat="46.12503" lon="3.46097">
        <ele>394</ele>
        <time>2013-10-12T15:19:55Z</time>
      </trkpt>
      <trkpt lat="46.12532" lon="3.46065">
        <ele>393</ele>
        <time>2013-10-12T15:20:04Z</time>
      </trkpt>
      <trkpt lat="46.12564" lon="3.45981">
        <ele>393</ele>
        <time>2013-10-12T15:20:25Z</time>
      </trkpt>
      <trkpt lat="46.12589" lon="3.46003">
        <ele>393</ele>
        <time>2013-10-12T15:20:35Z</time>
      </trkpt>
      <trkpt lat="46.12637" lon="3.45999">
        <ele>391</ele>
        <time>2013-10-12T15:20:55Z</time>
      </trkpt>
      <trkpt lat="46.12702" lon="3.45926">
        <ele>386</ele>
        <time>2013-10-12T15:21:24Z</time>
      </trkpt>
      <trkpt lat="46.12744" lon="3.45906">
        <ele>374</ele>
        <time>2013-10-12T15:21:35Z</time>
      </trkpt>
      <trkpt lat="46.12773" lon="3.45913">
        <ele>365</ele>
        <time>2013-10-12T15:21:42Z</time>
      </trkpt>
      <trkpt lat="46.12838" lon="3.45857">
        <ele>363</ele>
        <time>2013-10-12T15:22:15Z</time>
      </trkpt>
      <trkpt lat="46.12863" lon="3.45857">
        <ele>359</ele>
        <time>2013-10-12T15:22:24Z</time>
      </trkpt>
      <trkpt lat="46.12901" lon="3.45891">
        <ele>354</ele>
        <time>2013-10-12T15:22:33Z</time>
      </trkpt>
      <trkpt lat="46.1293" lon="3.45883">
        <ele>353</ele>
        <time>2013-10-12T15:22:41Z</time>
      </trkpt>
      <trkpt lat="46.12931" lon="3.45908">
        <ele>350</ele>
        <time>2013-10-12T15:22:45Z</time>
      </trkpt>
      <trkpt lat="46.12988" lon="3.45941">
        <ele>339</ele>
        <time>2013-10-12T15:23:08Z</time>
      </trkpt>
      <trkpt lat="46.13047" lon="3.45934">
        <ele>336</ele>
        <time>2013-10-12T15:23:24Z</time>
      </trkpt>
      <trkpt lat="46.1313" lon="3.4587">
        <ele>331</ele>
        <time>2013-10-12T15:23:56Z</time>
      </trkpt>
      <trkpt lat="46.13227" lon="3.45913">
        <ele>327</ele>
        <time>2013-10-12T15:24:26Z</time>
      </trkpt>
      <trkpt lat="46.13317" lon="3.45932">
        <ele>324</ele>
        <time>2013-10-12T15:24:57Z</time>
      </trkpt>
      <trkpt lat="46.1342" lon="3.45743">
        <ele>329</ele>
        <time>2013-10-12T15:25:24Z</time>
      </trkpt>
      <trkpt lat="46.13446" lon="3.45737">
        <ele>328</ele>
        <time>2013-10-12T15:25:30Z</time>
      </trkpt>
      <trkpt lat="46.13488" lon="3.45608">
        <ele>325</ele>
        <time>2013-10-12T15:25:50Z</time>
      </trkpt>
      <trkpt lat="46.13556" lon="3.45552">
        <ele>327</ele>
        <time>2013-10-12T15:26:06Z</time>
      </trkpt>
      <trkpt lat="46.13646" lon="3.45557">
        <ele>322</ele>
        <time>2013-10-12T15:26:24Z</time>
      </trkpt>
      <trkpt lat="46.13675" lon="3.454">
        <ele>321</ele>
        <time>2013-10-12T15:26:45Z</time>
      </trkpt>
      <trkpt lat="46.13712" lon="3.45335">
        <ele>322</ele>
        <time>2013-10-12T15:27:01Z</time>
      </trkpt>
      <trkpt lat="46.13808" lon="3.4543">
        <ele>320</ele>
        <time>2013-10-12T15:27:24Z</time>
      </trkpt>
      <trkpt lat="46.13831" lon="3.45413">
        <ele>320</ele>
        <time>2013-10-12T15:27:32Z</time>
      </trkpt>
      <trkpt lat="46.13854" lon="3.45282">
        <ele>326</ele>
        <time>2013-10-12T15:27:54Z</time>
      </trkpt>
      <trkpt lat="46.13881" lon="3.44975">
        <ele>325</ele>
        <time>2013-10-12T15:28:42Z</time>
      </trkpt>
      <trkpt lat="46.13911" lon="3.44956">
        <ele>325</ele>
        <time>2013-10-12T15:28:49Z</time>
      </trkpt>
      <trkpt lat="46.14021" lon="3.44966">
        <ele>322</ele>
        <time>2013-10-12T15:29:12Z</time>
      </trkpt>
      <trkpt lat="46.14116" lon="3.44932">
        <ele>328</ele>
        <time>2013-10-12T15:29:38Z</time>
      </trkpt>
      <trkpt lat="46.1426" lon="3.44928">
        <ele>331</ele>
        <time>2013-10-12T15:30:31Z</time>
      </trkpt>
      <trkpt lat="46.14449" lon="3.45003">
        <ele>341</ele>
        <time>2013-10-12T15:31:56Z</time>
      </trkpt>
      <trkpt lat="46.14516" lon="3.45114">
        <ele>348</ele>
        <time>2013-10-12T15:32:40Z</time>
      </trkpt>
      <trkpt lat="46.14578" lon="3.45076">
        <ele>354</ele>
        <time>2013-10-12T15:33:10Z</time>
      </trkpt>
      <trkpt lat="46.14623" lon="3.45024">
        <ele>358</ele>
        <time>2013-10-12T15:33:36Z</time>
      </trkpt>
      <trkpt lat="46.14677" lon="3.45016">
        <ele>364</ele>
        <time>2013-10-12T15:34:02Z</time>
      </trkpt>
      <trkpt lat="46.14761" lon="3.45037">
        <ele>371</ele>
        <time>2013-10-12T15:34:42Z</time>
      </trkpt>
      <trkpt lat="46.14787" lon="3.45016">
        <ele>373</ele>
        <time>2013-10-12T15:34:55Z</time>
      </trkpt>
      <trkpt lat="46.14794" lon="3.44932">
        <ele>380</ele>
        <time>2013-10-12T15:35:25Z</time>
      </trkpt>
      <trkpt lat="46.14843" lon="3.4481">
        <ele>389</ele>
        <time>2013-10-12T15:36:26Z</time>
      </trkpt>
      <trkpt lat="46.14876" lon="3.44795">
        <ele>394</ele>
        <time>2013-10-12T15:36:49Z</time>
      </trkpt>
      <trkpt lat="46.14942" lon="3.44803">
        <ele>402</ele>
        <time>2013-10-12T15:37:21Z</time>
      </trkpt>
      <trkpt lat="46.15023" lon="3.4478">
        <ele>411</ele>
        <time>2013-10-12T15:38:01Z</time>
      </trkpt>
      <trkpt lat="46.1512" lon="3.4478">
        <ele>419</ele>
        <time>2013-10-12T15:38:42Z</time>
      </trkpt>
      <trkpt lat="46.15226" lon="3.44836">
        <ele>426</ele>
        <time>2013-10-12T15:39:24Z</time>
      </trkpt>
      <trkpt lat="46.15313" lon="3.44859">
        <ele>431</ele>
        <time>2013-10-12T15:39:54Z</time>
      </trkpt>
      <trkpt lat="46.15407" lon="3.4484">
        <ele>439</ele>
        <time>2013-10-12T15:40:24Z</time>
      </trkpt>
      <trkpt lat="46.1551" lon="3.44949">
        <ele>437</ele>
        <time>2013-10-12T15:40:39Z</time>
      </trkpt>
      <trkpt lat="46.15539" lon="3.44956">
        <ele>437</ele>
        <time>2013-10-12T15:40:43Z</time>
      </trkpt>
      <trkpt lat="46.15625" lon="3.44893">
        <ele>434</ele>
        <time>2013-10-12T15:41:12Z</time>
      </trkpt>
      <trkpt lat="46.15646" lon="3.44829">
        <ele>433</ele>
        <time>2013-10-12T15:41:36Z</time>
      </trkpt>
      <trkpt lat="46.15785" lon="3.44778">
        <ele>438</ele>
        <time>2013-10-12T15:42:40Z</time>
      </trkpt>
      <trkpt lat="46.15819" lon="3.44739">
        <ele>440</ele>
        <time>2013-10-12T15:42:58Z</time>
      </trkpt>
      <trkpt lat="46.15804" lon="3.44531">
        <ele>447</ele>
        <time>2013-10-12T15:43:34Z</time>
      </trkpt>
      <trkpt lat="46.15808" lon="3.44458">
        <ele>446</ele>
        <time>2013-10-12T15:43:43Z</time>
      </trkpt>
      <trkpt lat="46.15842" lon="3.44383">
        <ele>446</ele>
        <time>2013-10-12T15:43:52Z</time>
      </trkpt>
      <trkpt lat="46.15896" lon="3.44316">
        <ele>442</ele>
        <time>2013-10-12T15:44:01Z</time>
      </trkpt>
      <trkpt lat="46.15876" lon="3.4423">
        <ele>439</ele>
        <time>2013-10-12T15:44:10Z</time>
      </trkpt>
      <trkpt lat="46.15875" lon="3.44115">
        <ele>433</ele>
        <time>2013-10-12T15:44:19Z</time>
      </trkpt>
      <trkpt lat="46.15913" lon="3.43915">
        <ele>419</ele>
        <time>2013-10-12T15:45:16Z</time>
      </trkpt>
      <trkpt lat="46.15938" lon="3.43861">
        <ele>422</ele>
        <time>2013-10-12T15:45:46Z</time>
      </trkpt>
      <trkpt lat="46.15942" lon="3.43799">
        <ele>425</ele>
        <time>2013-10-12T15:46:13Z</time>
      </trkpt>
      <trkpt lat="46.16003" lon="3.43769">
        <ele>428</ele>
        <time>2013-10-12T15:46:43Z</time>
      </trkpt>
      <trkpt lat="46.16065" lon="3.43677">
        <ele>434</ele>
        <time>2013-10-12T15:47:12Z</time>
      </trkpt>
      <trkpt lat="46.16273" lon="3.43692">
        <ele>431</ele>
        <time>2013-10-12T15:47:37Z</time>
      </trkpt>
      <trkpt lat="46.1641" lon="3.43567">
        <ele>420</ele>
        <time>2013-10-12T15:47:54Z</time>
      </trkpt>
      <trkpt lat="46.16447" lon="3.43559">
        <ele>413</ele>
        <time>2013-10-12T15:48:00Z</time>
      </trkpt>
      <trkpt lat="46.16566" lon="3.43597">
        <ele>396</ele>
        <time>2013-10-12T15:48:22Z</time>
      </trkpt>
      <trkpt lat="46.16679" lon="3.43585">
        <ele>391</ele>
        <time>2013-10-12T15:48:40Z</time>
      </trkpt>
      <trkpt lat="46.16708" lon="3.43567">
        <ele>389</ele>
        <time>2013-10-12T15:48:47Z</time>
      </trkpt>
      <trkpt lat="46.16699" lon="3.43539">
        <ele>388</ele>
        <time>2013-10-12T15:48:53Z</time>
      </trkpt>
      <trkpt lat="46.16736" lon="3.43503">
        <ele>387</ele>
        <time>2013-10-12T15:48:59Z</time>
      </trkpt>
      <trkpt lat="46.16756" lon="3.43458">
        <ele>385</ele>
        <time>2013-10-12T15:49:03Z</time>
      </trkpt>
      <trkpt lat="46.16759" lon="3.43389">
        <ele>383</ele>
        <time>2013-10-12T15:49:08Z</time>
      </trkpt>
      <trkpt lat="46.1688" lon="3.43198">
        <ele>379</ele>
        <time>2013-10-12T15:49:30Z</time>
      </trkpt>
      <trkpt lat="46.16912" lon="3.4308">
        <ele>376</ele>
        <time>2013-10-12T15:49:39Z</time>
      </trkpt>
      <trkpt lat="46.16935" lon="3.4304">
        <ele>372</ele>
        <time>2013-10-12T15:50:04Z</time>
      </trkpt>
      <trkpt lat="46.17015" lon="3.43005">
        <ele>362</ele>
        <time>2013-10-12T15:51:54Z</time>
      </trkpt>
      <trkpt lat="46.1704" lon="3.43087">
        <ele>360</ele>
        <time>2013-10-12T15:52:17Z</time>
      </trkpt>
    </trkseg>
  </trk>
</gpx>